sensor_id;sensor_type;location;lat;lon;timestamp;temperature;humidity
38604;DHT22;24924;50.054;8.790;2023-11-21T13:05:33;15.80;99.90
38604;DHT22;24924;50.054;8.790;2023-11-21T13:08:00;12.10;99.90
38604;DHT22;24924;50.054;8.790;2023-11-21T13:10:29;12.10;99.90
38604;DHT22;24924;50.054;8.790;2023-11-21T13:13:00;12.10;99.90
38604;DHT22;24924;50.054;8.790;2023-11-21T13:15:29;12.20;99.90
38604;DHT22;24924;50.054;8.790;2023-11-21T13:17:57;12.10;99.90
38604;DHT22;24924;50.054;8.790;2023-11-21T13:20:24;12.10;99.90
38604;DHT22;24924;50.054;8.790;2023-11-21T13:22:56;12.00;99.90
38604;DHT22;24924;50.054;8.790;2023-11-21T13:25:29;12.10;99.90
38604;DHT22;24924;50.054;8.790;2023-11-21T13:27:58;12.20;99.90
38604;DHT22;24924;50.054;8.790;2023-11-21T13:30:28;12.20;99.90
38604;DHT22;24924;50.054;8.790;2023-11-21T13:33:00;12.10;99.90
38604;DHT22;24924;50.054;8.790;2023-11-21T13:35:34;12.10;99.90
38604;DHT22;24924;50.054;8.790;2023-11-21T13:38:11;12.20;99.90
38604;DHT22;24924;50.054;8.790;2023-11-21T13:40:39;12.00;99.90
38604;DHT22;24924;50.054;8.790;2023-11-21T13:43:19;12.00;99.90
38604;DHT22;24924;50.054;8.790;2023-11-21T13:45:46;12.10;99.90
38604;DHT22;24924;50.054;8.790;2023-11-21T13:48:13;12.10;99.90
38604;DHT22;24924;50.054;8.790;2023-11-21T13:50:46;12.10;99.90
38604;DHT22;24924;50.054;8.790;2023-11-21T13:53:25;12.00;99.90
38604;DHT22;24924;50.054;8.790;2023-11-21T13:55:51;11.80;99.90
38604;DHT22;24924;50.054;8.790;2023-11-21T13:58:23;11.70;99.90
38604;DHT22;24924;50.054;8.790;2023-11-21T14:01:07;11.50;99.90
38604;DHT22;24924;50.054;8.790;2023-11-21T14:03:50;11.40;99.90
38604;DHT22;24924;50.054;8.790;2023-11-21T14:06:22;11.50;99.90
38604;DHT22;24924;50.054;8.790;2023-11-21T14:08:53;11.30;99.90
38604;DHT22;24924;50.054;8.790;2023-11-21T14:11:22;11.30;99.90
38604;DHT22;24924;50.054;8.790;2023-11-21T14:13:48;11.30;99.90
38604;DHT22;24924;50.054;8.790;2023-11-21T14:16:14;11.30;99.90
38604;DHT22;24924;50.054;8.790;2023-11-21T14:18:43;11.30;99.90
38604;DHT22;24924;50.054;8.790;2023-11-21T14:21:24;11.20;99.90
38604;DHT22;24924;50.054;8.790;2023-11-21T14:23:50;11.20;99.90
38604;DHT22;24924;50.054;8.790;2023-11-21T14:26:16;11.20;99.90
38604;DHT22;24924;50.054;8.790;2023-11-21T14:28:42;11.20;99.90
38604;DHT22;24924;50.054;8.790;2023-11-21T14:31:08;11.10;99.90
38604;DHT22;24924;50.054;8.790;2023-11-21T14:33:40;11.10;99.90
38604;DHT22;24924;50.054;8.790;2023-11-21T14:36:07;11.10;99.90
38604;DHT22;24924;50.054;8.790;2023-11-21T14:38:36;11.10;99.90
38604;DHT22;24924;50.054;8.790;2023-11-21T14:41:06;11.10;99.90
38604;DHT22;24924;50.054;8.790;2023-11-21T14:43:35;11.10;99.90
38604;DHT22;24924;50.054;8.790;2023-11-21T14:46:02;11.10;99.90
38604;DHT22;24924;50.054;8.790;2023-11-21T14:48:41;11.00;99.90
38604;DHT22;24924;50.054;8.790;2023-11-21T14:51:13;11.00;99.90
38604;DHT22;24924;50.054;8.790;2023-11-21T14:53:57;11.00;99.90
38604;DHT22;24924;50.054;8.790;2023-11-21T14:56:34;10.90;99.90
38604;DHT22;24924;50.054;8.790;2023-11-21T14:59:02;10.90;99.90
38604;DHT22;24924;50.054;8.790;2023-11-21T15:01:34;10.80;99.90
38604;DHT22;24924;50.054;8.790;2023-11-21T15:04:19;10.80;99.90
38604;DHT22;24924;50.054;8.790;2023-11-21T15:07:14;10.80;99.90
38604;DHT22;24924;50.054;8.790;2023-11-21T15:09:40;10.80;99.90
38604;DHT22;24924;50.054;8.790;2023-11-21T15:12:09;10.80;99.90
38604;DHT22;24924;50.054;8.790;2023-11-21T15:14:44;10.80;99.90
38604;DHT22;24924;50.054;8.790;2023-11-21T15:17:12;10.70;99.90
38604;DHT22;24924;50.054;8.790;2023-11-21T15:19:43;10.80;99.90
38604;DHT22;24924;50.054;8.790;2023-11-21T15:22:09;10.70;99.90
38604;DHT22;24924;50.054;8.790;2023-11-21T15:24:38;10.70;99.90
38604;DHT22;24924;50.054;8.790;2023-11-21T15:27:07;10.70;99.90
38604;DHT22;24924;50.054;8.790;2023-11-21T15:29:33;10.60;99.90
38604;DHT22;24924;50.054;8.790;2023-11-21T15:31:59;10.70;99.90
38604;DHT22;24924;50.054;8.790;2023-11-21T15:34:26;10.60;99.90
38604;DHT22;24924;50.054;8.790;2023-11-21T15:36:54;10.60;99.90
38604;DHT22;24924;50.054;8.790;2023-11-21T15:39:20;10.60;99.90
38604;DHT22;24924;50.054;8.790;2023-11-21T15:41:54;10.30;99.90
38604;DHT22;24924;50.054;8.790;2023-11-21T15:44:19;10.70;99.90
38604;DHT22;24924;50.054;8.790;2023-11-21T15:46:45;10.60;99.90
38604;DHT22;24924;50.054;8.790;2023-11-21T15:49:11;10.60;99.90
38604;DHT22;24924;50.054;8.790;2023-11-21T15:51:43;10.60;99.90
38604;DHT22;24924;50.054;8.790;2023-11-21T15:54:12;10.50;99.90
38604;DHT22;24924;50.054;8.790;2023-11-21T15:56:39;10.60;99.90
38604;DHT22;24924;50.054;8.790;2023-11-21T15:59:04;10.50;99.90
38604;DHT22;24924;50.054;8.790;2023-11-21T16:01:31;10.40;99.90
38604;DHT22;24924;50.054;8.790;2023-11-21T16:03:57;10.40;99.90
38604;DHT22;24924;50.054;8.790;2023-11-21T16:06:26;10.40;99.90
38604;DHT22;24924;50.054;8.790;2023-11-21T16:08:53;10.40;99.90
38604;DHT22;24924;50.054;8.790;2023-11-21T16:11:19;10.30;99.90
38604;DHT22;24924;50.054;8.790;2023-11-21T16:13:45;10.30;99.90
38604;DHT22;24924;50.054;8.790;2023-11-21T16:16:12;10.30;99.90
38604;DHT22;24924;50.054;8.790;2023-11-21T16:18:37;10.30;99.90
38604;DHT22;24924;50.054;8.790;2023-11-21T16:21:03;10.30;99.90
38604;DHT22;24924;50.054;8.790;2023-11-21T16:23:28;10.30;99.90
38604;DHT22;24924;50.054;8.790;2023-11-21T16:25:54;10.40;99.90
38604;DHT22;24924;50.054;8.790;2023-11-21T16:28:23;10.40;99.90
38604;DHT22;24924;50.054;8.790;2023-11-21T16:30:50;10.30;99.90
38604;DHT22;24924;50.054;8.790;2023-11-21T16:33:16;10.30;99.90
38604;DHT22;24924;50.054;8.790;2023-11-21T16:35:42;10.30;99.90
38604;DHT22;24924;50.054;8.790;2023-11-21T16:38:08;10.30;99.90
38604;DHT22;24924;50.054;8.790;2023-11-21T16:40:34;10.30;99.90
38604;DHT22;24924;50.054;8.790;2023-11-21T16:43:00;10.30;99.90
38604;DHT22;24924;50.054;8.790;2023-11-21T16:45:26;10.30;99.90
38604;DHT22;24924;50.054;8.790;2023-11-21T16:47:54;10.30;99.90
38604;DHT22;24924;50.054;8.790;2023-11-21T16:50:20;10.20;99.90
38604;DHT22;24924;50.054;8.790;2023-11-21T16:52:46;10.20;99.90
38604;DHT22;24924;50.054;8.790;2023-11-21T16:55:12;10.20;99.90
38604;DHT22;24924;50.054;8.790;2023-11-21T16:57:41;10.20;99.90
38604;DHT22;24924;50.054;8.790;2023-11-21T17:00:07;10.20;99.90
38604;DHT22;24924;50.054;8.790;2023-11-21T17:02:36;10.20;99.90
38604;DHT22;24924;50.054;8.790;2023-11-21T17:05:02;10.10;99.90
38604;DHT22;24924;50.054;8.790;2023-11-21T17:07:31;10.20;99.90
38604;DHT22;24924;50.054;8.790;2023-11-21T17:09:57;10.10;99.90
38604;DHT22;24924;50.054;8.790;2023-11-21T17:12:24;10.20;99.90
38604;DHT22;24924;50.054;8.790;2023-11-21T17:14:50;10.90;99.90
38604;DHT22;24924;50.054;8.790;2023-11-21T17:17:16;10.20;99.90
38604;DHT22;24924;50.054;8.790;2023-11-21T17:19:42;10.10;99.90
38604;DHT22;24924;50.054;8.790;2023-11-21T17:22:09;10.20;99.90
38604;DHT22;24924;50.054;8.790;2023-11-21T17:24:34;10.10;99.90
38604;DHT22;24924;50.054;8.790;2023-11-21T17:27:05;10.10;99.90
38604;DHT22;24924;50.054;8.790;2023-11-21T17:29:31;10.10;99.90
38604;DHT22;24924;50.054;8.790;2023-11-21T17:31:57;10.00;99.90
38604;DHT22;24924;50.054;8.790;2023-11-21T17:34:23;10.00;99.90
38604;DHT22;24924;50.054;8.790;2023-11-21T17:36:49;10.00;99.90
38604;DHT22;24924;50.054;8.790;2023-11-21T17:39:15;10.00;99.90
38604;DHT22;24924;50.054;8.790;2023-11-21T17:41:41;9.90;99.90
38604;DHT22;24924;50.054;8.790;2023-11-21T17:44:07;9.90;99.90
38604;DHT22;24924;50.054;8.790;2023-11-21T17:46:33;9.90;99.90
38604;DHT22;24924;50.054;8.790;2023-11-21T17:48:58;9.90;99.90
38604;DHT22;24924;50.054;8.790;2023-11-21T17:51:25;9.90;99.90
38604;DHT22;24924;50.054;8.790;2023-11-21T17:53:51;9.90;99.90
38604;DHT22;24924;50.054;8.790;2023-11-21T17:56:18;9.90;99.90
38604;DHT22;24924;50.054;8.790;2023-11-21T17:58:45;9.80;99.90
38604;DHT22;24924;50.054;8.790;2023-11-21T18:01:11;9.80;99.90
38604;DHT22;24924;50.054;8.790;2023-11-21T18:03:37;9.80;99.90
38604;DHT22;24924;50.054;8.790;2023-11-21T18:06:05;9.80;99.90
38604;DHT22;24924;50.054;8.790;2023-11-21T18:08:31;9.80;99.90
38604;DHT22;24924;50.054;8.790;2023-11-21T18:10:57;9.80;99.90
38604;DHT22;24924;50.054;8.790;2023-11-21T18:13:25;9.70;99.90
38604;DHT22;24924;50.054;8.790;2023-11-21T18:15:50;9.70;99.90
38604;DHT22;24924;50.054;8.790;2023-11-21T18:18:16;9.80;99.90
38604;DHT22;24924;50.054;8.790;2023-11-21T18:20:43;9.80;99.90
38604;DHT22;24924;50.054;8.790;2023-11-21T18:23:10;9.80;99.90
38604;DHT22;24924;50.054;8.790;2023-11-21T18:25:36;9.80;99.90
38604;DHT22;24924;50.054;8.790;2023-11-21T18:28:01;9.70;99.90
38604;DHT22;24924;50.054;8.790;2023-11-21T18:30:27;9.80;99.90
38604;DHT22;24924;50.054;8.790;2023-11-21T18:32:53;9.80;99.90
38604;DHT22;24924;50.054;8.790;2023-11-21T18:35:18;9.80;99.90
38604;DHT22;24924;50.054;8.790;2023-11-21T18:37:45;9.80;99.90
38604;DHT22;24924;50.054;8.790;2023-11-21T18:40:14;9.80;99.90
38604;DHT22;24924;50.054;8.790;2023-11-21T18:42:41;9.80;99.90
38604;DHT22;24924;50.054;8.790;2023-11-21T18:45:10;9.80;99.90
38604;DHT22;24924;50.054;8.790;2023-11-21T18:47:38;9.80;99.90
38604;DHT22;24924;50.054;8.790;2023-11-21T18:50:05;9.80;99.90
38604;DHT22;24924;50.054;8.790;2023-11-21T18:52:31;9.80;99.90
38604;DHT22;24924;50.054;8.790;2023-11-21T18:54:58;9.80;99.90
38604;DHT22;24924;50.054;8.790;2023-11-21T18:57:27;9.80;99.90
38604;DHT22;24924;50.054;8.790;2023-11-21T18:59:53;9.70;99.90
38604;DHT22;24924;50.054;8.790;2023-11-21T19:02:19;9.70;99.90
38604;DHT22;24924;50.054;8.790;2023-11-21T19:04:45;9.60;99.90
38604;DHT22;24924;50.054;8.790;2023-11-21T19:07:10;9.40;99.90
38604;DHT22;24924;50.054;8.790;2023-11-21T19:09:36;9.30;99.90
38604;DHT22;24924;50.054;8.790;2023-11-21T19:12:03;9.20;99.90
38604;DHT22;24924;50.054;8.790;2023-11-21T19:14:30;9.10;99.90
38604;DHT22;24924;50.054;8.790;2023-11-21T19:16:55;9.00;99.90
38604;DHT22;24924;50.054;8.790;2023-11-21T19:19:22;9.00;99.90
38604;DHT22;24924;50.054;8.790;2023-11-21T19:21:48;8.80;99.90
38604;DHT22;24924;50.054;8.790;2023-11-21T19:24:14;8.80;99.90
38604;DHT22;24924;50.054;8.790;2023-11-21T19:26:43;8.70;99.90
38604;DHT22;24924;50.054;8.790;2023-11-21T19:29:11;8.70;99.90
38604;DHT22;24924;50.054;8.790;2023-11-21T19:31:37;8.60;99.90
38604;DHT22;24924;50.054;8.790;2023-11-21T19:34:03;8.60;99.90
38604;DHT22;24924;50.054;8.790;2023-11-21T19:36:28;8.50;99.90
38604;DHT22;24924;50.054;8.790;2023-11-21T19:38:54;8.50;99.90
38604;DHT22;24924;50.054;8.790;2023-11-21T19:41:21;8.50;99.90
38604;DHT22;24924;50.054;8.790;2023-11-21T19:43:49;8.30;99.90
38604;DHT22;24924;50.054;8.790;2023-11-21T19:46:16;8.30;99.90
38604;DHT22;24924;50.054;8.790;2023-11-21T19:48:41;8.20;99.90
38604;DHT22;24924;50.054;8.790;2023-11-21T19:51:08;8.20;99.90
38604;DHT22;24924;50.054;8.790;2023-11-21T19:53:34;8.20;99.90
38604;DHT22;24924;50.054;8.790;2023-11-21T19:56:05;8.30;99.90
38604;DHT22;24924;50.054;8.790;2023-11-21T19:58:38;8.30;99.90
38604;DHT22;24924;50.054;8.790;2023-11-21T20:01:05;8.30;99.90
38604;DHT22;24924;50.054;8.790;2023-11-21T20:03:31;8.20;99.90
38604;DHT22;24924;50.054;8.790;2023-11-21T20:06:01;8.10;99.90
38604;DHT22;24924;50.054;8.790;2023-11-21T20:08:28;8.10;99.90
38604;DHT22;24924;50.054;8.790;2023-11-21T20:11:00;8.10;99.90
38604;DHT22;24924;50.054;8.790;2023-11-21T20:13:26;8.10;99.90
38604;DHT22;24924;50.054;8.790;2023-11-21T20:15:51;8.10;99.90
38604;DHT22;24924;50.054;8.790;2023-11-21T20:18:17;8.10;99.90
38604;DHT22;24924;50.054;8.790;2023-11-21T20:20:43;8.10;99.90
38604;DHT22;24924;50.054;8.790;2023-11-21T20:23:09;8.20;99.90
38604;DHT22;24924;50.054;8.790;2023-11-21T20:25:34;8.10;99.90
38604;DHT22;24924;50.054;8.790;2023-11-21T20:28:00;8.10;99.90
38604;DHT22;24924;50.054;8.790;2023-11-21T20:30:26;8.10;99.90
38604;DHT22;24924;50.054;8.790;2023-11-21T20:32:57;8.10;99.90
38604;DHT22;24924;50.054;8.790;2023-11-21T20:35:29;8.10;99.90
38604;DHT22;24924;50.054;8.790;2023-11-21T20:37:55;8.10;99.90
38604;DHT22;24924;50.054;8.790;2023-11-21T20:40:21;8.00;99.90
38604;DHT22;24924;50.054;8.790;2023-11-21T20:42:50;8.00;99.90
38604;DHT22;24924;50.054;8.790;2023-11-21T20:45:17;7.90;99.90
38604;DHT22;24924;50.054;8.790;2023-11-21T20:47:49;7.90;99.90
38604;DHT22;24924;50.054;8.790;2023-11-21T20:50:15;8.00;99.90
38604;DHT22;24924;50.054;8.790;2023-11-21T20:52:42;7.90;99.90
38604;DHT22;24924;50.054;8.790;2023-11-21T20:55:09;8.00;99.90
38604;DHT22;24924;50.054;8.790;2023-11-21T20:57:37;8.00;99.90
38604;DHT22;24924;50.054;8.790;2023-11-21T21:00:03;8.00;99.90
38604;DHT22;24924;50.054;8.790;2023-11-21T21:02:35;8.00;99.90
38604;DHT22;24924;50.054;8.790;2023-11-21T21:05:01;8.10;99.90
38604;DHT22;24924;50.054;8.790;2023-11-21T21:07:27;7.90;99.90
38604;DHT22;24924;50.054;8.790;2023-11-21T21:09:53;7.90;99.90
38604;DHT22;24924;50.054;8.790;2023-11-21T21:12:18;7.90;99.90
38604;DHT22;24924;50.054;8.790;2023-11-21T21:14:44;7.80;99.90
38604;DHT22;24924;50.054;8.790;2023-11-21T21:17:10;7.70;99.90
38604;DHT22;24924;50.054;8.790;2023-11-21T21:19:36;7.80;99.90
38604;DHT22;24924;50.054;8.790;2023-11-21T21:22:03;7.70;99.90
38604;DHT22;24924;50.054;8.790;2023-11-21T21:24:28;7.70;99.90
38604;DHT22;24924;50.054;8.790;2023-11-21T21:26:54;7.60;99.90
38604;DHT22;24924;50.054;8.790;2023-11-21T21:29:20;7.60;99.90
38604;DHT22;24924;50.054;8.790;2023-11-21T21:31:51;7.50;99.90
38604;DHT22;24924;50.054;8.790;2023-11-21T21:34:17;7.50;99.90
38604;DHT22;24924;50.054;8.790;2023-11-21T21:36:43;7.50;99.90
38604;DHT22;24924;50.054;8.790;2023-11-21T21:39:10;7.40;99.90
38604;DHT22;24924;50.054;8.790;2023-11-21T21:41:40;7.40;99.90
38604;DHT22;24924;50.054;8.790;2023-11-21T21:44:05;7.40;99.90
38604;DHT22;24924;50.054;8.790;2023-11-21T21:46:32;7.30;99.90
38604;DHT22;24924;50.054;8.790;2023-11-21T21:48:58;7.40;99.90
38604;DHT22;24924;50.054;8.790;2023-11-21T21:51:24;7.30;99.90
38604;DHT22;24924;50.054;8.790;2023-11-21T21:53:50;7.40;99.90
38604;DHT22;24924;50.054;8.790;2023-11-21T21:56:22;7.30;99.90
38604;DHT22;24924;50.054;8.790;2023-11-21T21:58:48;7.40;99.90
38604;DHT22;24924;50.054;8.790;2023-11-21T22:01:17;7.40;99.90
38604;DHT22;24924;50.054;8.790;2023-11-21T22:03:43;7.40;99.90
38604;DHT22;24924;50.054;8.790;2023-11-21T22:06:10;7.40;99.90
38604;DHT22;24924;50.054;8.790;2023-11-21T22:08:38;7.40;99.90
38604;DHT22;24924;50.054;8.790;2023-11-21T22:11:03;7.30;99.90
38604;DHT22;24924;50.054;8.790;2023-11-21T22:13:30;7.20;99.90
38604;DHT22;24924;50.054;8.790;2023-11-21T22:15:56;7.30;99.90
38604;DHT22;24924;50.054;8.790;2023-11-21T22:18:21;7.40;99.90
38604;DHT22;24924;50.054;8.790;2023-11-21T22:20:47;7.40;99.90
38604;DHT22;24924;50.054;8.790;2023-11-21T22:23:13;7.30;99.90
38604;DHT22;24924;50.054;8.790;2023-11-21T22:25:39;7.10;99.90
38604;DHT22;24924;50.054;8.790;2023-11-21T22:28:04;7.00;99.90
38604;DHT22;24924;50.054;8.790;2023-11-21T22:30:30;7.10;99.90
38604;DHT22;24924;50.054;8.790;2023-11-21T22:32:56;7.00;99.90
38604;DHT22;24924;50.054;8.790;2023-11-21T22:35:24;6.90;99.90
38604;DHT22;24924;50.054;8.790;2023-11-21T22:37:51;6.90;99.90
38604;DHT22;24924;50.054;8.790;2023-11-21T22:40:17;6.90;99.90
38604;DHT22;24924;50.054;8.790;2023-11-21T22:42:43;6.70;99.90
38604;DHT22;24924;50.054;8.790;2023-11-21T22:45:09;6.70;99.90
38604;DHT22;24924;50.054;8.790;2023-11-21T22:47:35;6.70;99.90
38604;DHT22;24924;50.054;8.790;2023-11-21T22:50:01;6.60;99.90
38604;DHT22;24924;50.054;8.790;2023-11-21T22:52:26;6.70;99.90
38604;DHT22;24924;50.054;8.790;2023-11-21T22:54:52;6.60;99.90
38604;DHT22;24924;50.054;8.790;2023-11-21T22:57:18;6.50;99.90
38604;DHT22;24924;50.054;8.790;2023-11-21T22:59:45;6.60;99.90
38604;DHT22;24924;50.054;8.790;2023-11-21T23:02:12;6.60;99.90
38604;DHT22;24924;50.054;8.790;2023-11-21T23:04:38;6.50;99.90
38604;DHT22;24924;50.054;8.790;2023-11-21T23:07:04;6.50;99.90
38604;DHT22;24924;50.054;8.790;2023-11-21T23:09:32;6.40;99.90
38604;DHT22;24924;50.054;8.790;2023-11-21T23:11:58;6.50;99.90
38604;DHT22;24924;50.054;8.790;2023-11-21T23:14:24;6.50;99.90
38604;DHT22;24924;50.054;8.790;2023-11-21T23:16:53;6.40;99.90
38604;DHT22;24924;50.054;8.790;2023-11-21T23:19:19;6.40;99.90
38604;DHT22;24924;50.054;8.790;2023-11-21T23:21:46;6.30;99.90
38604;DHT22;24924;50.054;8.790;2023-11-21T23:24:12;6.10;99.90
38604;DHT22;24924;50.054;8.790;2023-11-21T23:26:44;6.20;99.90
38604;DHT22;24924;50.054;8.790;2023-11-21T23:29:10;6.00;99.90
38604;DHT22;24924;50.054;8.790;2023-11-21T23:31:36;6.00;99.90
38604;DHT22;24924;50.054;8.790;2023-11-21T23:34:02;6.00;99.90
38604;DHT22;24924;50.054;8.790;2023-11-21T23:36:28;5.90;99.90
38604;DHT22;24924;50.054;8.790;2023-11-21T23:38:54;5.90;99.90
38604;DHT22;24924;50.054;8.790;2023-11-21T23:41:20;5.80;99.90
38604;DHT22;24924;50.054;8.790;2023-11-21T23:43:49;5.80;99.90
38604;DHT22;24924;50.054;8.790;2023-11-21T23:46:15;5.80;99.90
38604;DHT22;24924;50.054;8.790;2023-11-21T23:48:41;5.80;99.90
38604;DHT22;24924;50.054;8.790;2023-11-21T23:51:08;5.60;99.90
38604;DHT22;24924;50.054;8.790;2023-11-21T23:53:35;5.60;99.90
38604;DHT22;24924;50.054;8.790;2023-11-21T23:56:02;5.60;99.90
38604;DHT22;24924;50.054;8.790;2023-11-21T23:58:29;5.60;99.90
